sensor_id;sensor_type;location;lat;lon;timestamp;pressure;altitude;pressure_sealevel;temperature;humidity
46574;BME280;32299;53.366;-1.544;2022-09-12T00:00:44;98515.34;;;21.01;42.05
46574;BME280;32299;53.366;-1.544;2022-09-12T00:03:11;98515.69;;;21.18;41.81
46574;BME280;32299;53.366;-1.544;2022-09-12T00:05:40;98512.88;;;21.25;41.68
46574;BME280;32299;53.366;-1.544;2022-09-12T00:08:08;98516.35;;;21.22;41.78
46574;BME280;32299;53.366;-1.544;2022-09-12T00:10:37;98514.20;;;21.27;41.74
46574;BME280;32299;53.366;-1.544;2022-09-12T00:13:04;98512.93;;;21.26;41.77
46574;BME280;32299;53.366;-1.544;2022-09-12T00:15:36;98510.37;;;21.28;41.80
46574;BME280;32299;53.366;-1.544;2022-09-12T00:18:04;98507.17;;;21.27;41.83
46574;BME280;32299;53.366;-1.544;2022-09-12T00:20:31;98503.45;;;21.28;41.74
46574;BME280;32299;53.366;-1.544;2022-09-12T00:22:58;98496.47;;;21.21;41.87
46574;BME280;32299;53.366;-1.544;2022-09-12T00:25:25;98496.21;;;20.95;42.14
46574;BME280;32299;53.366;-1.544;2022-09-12T00:27:53;98488.92;;;21.12;42.13
46574;BME280;32299;53.366;-1.544;2022-09-12T00:30:20;98486.89;;;21.13;42.36
46574;BME280;32299;53.366;-1.544;2022-09-12T00:32:47;98487.34;;;20.90;42.55
46574;BME280;32299;53.366;-1.544;2022-09-12T00:35:14;98482.44;;;21.13;42.55
46574;BME280;32299;53.366;-1.544;2022-09-12T00:37:42;98481.91;;;21.14;42.67
46574;BME280;32299;53.366;-1.544;2022-09-12T00:40:10;98482.91;;;21.11;42.79
46574;BME280;32299;53.366;-1.544;2022-09-12T00:42:37;98478.11;;;21.08;42.93
46574;BME280;32299;53.366;-1.544;2022-09-12T00:45:05;98478.75;;;20.84;43.10
46574;BME280;32299;53.366;-1.544;2022-09-12T00:47:32;98476.48;;;21.05;43.10
46574;BME280;32299;53.366;-1.544;2022-09-12T00:50:06;98476.41;;;21.03;43.23
46574;BME280;32299;53.366;-1.544;2022-09-12T00:52:38;98475.02;;;20.98;43.30
46574;BME280;32299;53.366;-1.544;2022-09-12T00:55:10;98467.92;;;20.96;43.13
46574;BME280;32299;53.366;-1.544;2022-09-12T00:57:43;98472.25;;;20.96;43.35
46574;BME280;32299;53.366;-1.544;2022-09-12T01:00:14;98468.21;;;20.89;43.36
46574;BME280;32299;53.366;-1.544;2022-09-12T01:02:44;98471.27;;;20.88;43.47
46574;BME280;32299;53.366;-1.544;2022-09-12T01:05:12;98473.80;;;21.03;43.54
46574;BME280;32299;53.366;-1.544;2022-09-12T01:07:40;98469.38;;;20.83;43.65
46574;BME280;32299;53.366;-1.544;2022-09-12T01:10:09;98466.10;;;20.83;43.51
46574;BME280;32299;53.366;-1.544;2022-09-12T01:12:38;98463.63;;;21.04;43.53
46574;BME280;32299;53.366;-1.544;2022-09-12T01:15:07;98465.02;;;20.77;43.59
46574;BME280;32299;53.366;-1.544;2022-09-12T01:17:47;98470.32;;;20.99;43.75
46574;BME280;32299;53.366;-1.544;2022-09-12T01:20:34;98464.79;;;20.94;43.74
46574;BME280;32299;53.366;-1.544;2022-09-12T01:23:32;98464.31;;;20.63;44.13
46574;BME280;32299;53.366;-1.544;2022-09-12T01:26:21;98458.45;;;20.53;44.43
46574;BME280;32299;53.366;-1.544;2022-09-12T01:29:08;98451.65;;;20.51;44.46
46574;BME280;32299;53.366;-1.544;2022-09-12T01:31:42;98444.19;;;20.47;44.57
46574;BME280;32299;53.366;-1.544;2022-09-12T01:34:17;98438.37;;;20.71;44.51
46574;BME280;32299;53.366;-1.544;2022-09-12T01:36:56;98431.98;;;20.68;44.76
46574;BME280;32299;53.366;-1.544;2022-09-12T01:39:32;98428.70;;;20.67;44.71
46574;BME280;32299;53.366;-1.544;2022-09-12T01:42:12;98425.67;;;20.69;44.54
46574;BME280;32299;53.366;-1.544;2022-09-12T01:44:48;98422.91;;;20.47;44.59
46574;BME280;32299;53.366;-1.544;2022-09-12T01:47:24;98416.42;;;20.67;44.84
46574;BME280;32299;53.366;-1.544;2022-09-12T01:49:58;98417.11;;;20.66;44.83
46574;BME280;32299;53.366;-1.544;2022-09-12T01:52:30;98418.42;;;20.57;44.91
46574;BME280;32299;53.366;-1.544;2022-09-12T01:55:05;98419.90;;;20.61;44.91
46574;BME280;32299;53.366;-1.544;2022-09-12T01:57:37;98417.05;;;20.58;44.85
46574;BME280;32299;53.366;-1.544;2022-09-12T02:00:10;98412.51;;;20.57;44.70
46574;BME280;32299;53.366;-1.544;2022-09-12T02:02:40;98415.72;;;20.57;44.94
46574;BME280;32299;53.366;-1.544;2022-09-12T02:05:15;98419.59;;;20.58;44.85
46574;BME280;32299;53.366;-1.544;2022-09-12T02:07:47;98426.19;;;20.34;44.81
46574;BME280;32299;53.366;-1.544;2022-09-12T02:10:18;98428.37;;;20.35;44.84
46574;BME280;32299;53.366;-1.544;2022-09-12T02:12:53;98435.01;;;20.36;44.65
46574;BME280;32299;53.366;-1.544;2022-09-12T02:15:25;98437.53;;;20.60;44.80
46574;BME280;32299;53.366;-1.544;2022-09-12T02:17:56;98437.32;;;20.46;44.74
46574;BME280;32299;53.366;-1.544;2022-09-12T02:20:27;98429.94;;;20.63;44.82
46574;BME280;32299;53.366;-1.544;2022-09-12T02:22:56;98429.72;;;20.54;44.98
46574;BME280;32299;53.366;-1.544;2022-09-12T02:25:25;98428.74;;;20.54;45.17
46574;BME280;32299;53.366;-1.544;2022-09-12T02:27:59;98428.35;;;20.53;45.04
46574;BME280;32299;53.366;-1.544;2022-09-12T02:30:33;98430.19;;;20.46;45.04
46574;BME280;32299;53.366;-1.544;2022-09-12T02:33:06;98427.59;;;20.29;45.05
46574;BME280;32299;53.366;-1.544;2022-09-12T02:35:41;98421.87;;;20.27;45.20
46574;BME280;32299;53.366;-1.544;2022-09-12T02:38:16;98418.85;;;20.49;45.13
46574;BME280;32299;53.366;-1.544;2022-09-12T02:40:46;98415.27;;;20.45;45.18
46574;BME280;32299;53.366;-1.544;2022-09-12T02:43:13;98419.13;;;20.46;45.21
46574;BME280;32299;53.366;-1.544;2022-09-12T02:45:41;98417.29;;;20.46;45.14
46574;BME280;32299;53.366;-1.544;2022-09-12T02:48:11;98412.47;;;20.45;45.21
46574;BME280;32299;53.366;-1.544;2022-09-12T02:50:41;98415.55;;;20.47;45.14
46574;BME280;32299;53.366;-1.544;2022-09-12T02:53:09;98421.46;;;20.48;45.06
46574;BME280;32299;53.366;-1.544;2022-09-12T02:55:38;98423.22;;;20.26;45.37
46574;BME280;32299;53.366;-1.544;2022-09-12T02:58:10;98423.05;;;20.47;45.24
46574;BME280;32299;53.366;-1.544;2022-09-12T03:00:46;98425.07;;;20.46;45.23
46574;BME280;32299;53.366;-1.544;2022-09-12T03:04:12;98418.16;;;21.14;45.11
46574;BME280;32299;53.366;-1.544;2022-09-12T03:06:50;98418.82;;;20.35;45.48
46574;BME280;32299;53.366;-1.544;2022-09-12T03:09:28;98417.82;;;20.39;45.40
46574;BME280;32299;53.366;-1.544;2022-09-12T03:12:07;98420.86;;;20.65;45.55
46574;BME280;32299;53.366;-1.544;2022-09-12T03:14:55;98420.54;;;20.66;45.49
46574;BME280;32299;53.366;-1.544;2022-09-12T03:17:32;98416.51;;;20.36;45.52
46574;BME280;32299;53.366;-1.544;2022-09-12T03:20:12;98418.42;;;20.63;45.55
46574;BME280;32299;53.366;-1.544;2022-09-12T03:22:48;98421.04;;;20.37;45.54
46574;BME280;32299;53.366;-1.544;2022-09-12T03:25:20;98421.67;;;20.39;45.54
46574;BME280;32299;53.366;-1.544;2022-09-12T03:27:53;98419.74;;;20.20;45.60
46574;BME280;32299;53.366;-1.544;2022-09-12T03:30:22;98416.44;;;20.40;45.60
46574;BME280;32299;53.366;-1.544;2022-09-12T03:32:50;98415.24;;;20.39;45.57
46574;BME280;32299;53.366;-1.544;2022-09-12T03:35:20;98413.09;;;20.65;45.56
46574;BME280;32299;53.366;-1.544;2022-09-12T03:37:48;98414.90;;;20.37;45.68
46574;BME280;32299;53.366;-1.544;2022-09-12T03:40:16;98405.42;;;20.40;45.61
46574;BME280;32299;53.366;-1.544;2022-09-12T03:42:43;98410.59;;;20.19;45.57
46574;BME280;32299;53.366;-1.544;2022-09-12T03:45:11;98406.97;;;20.40;45.62
46574;BME280;32299;53.366;-1.544;2022-09-12T03:47:39;98403.78;;;20.40;45.55
46574;BME280;32299;53.366;-1.544;2022-09-12T03:50:07;98400.96;;;20.40;45.64
46574;BME280;32299;53.366;-1.544;2022-09-12T03:52:35;98393.16;;;20.67;45.63
46574;BME280;32299;53.366;-1.544;2022-09-12T03:55:03;98386.96;;;20.39;45.67
46574;BME280;32299;53.366;-1.544;2022-09-12T03:57:30;98386.48;;;20.42;45.65
46574;BME280;32299;53.366;-1.544;2022-09-12T03:59:58;98381.64;;;20.17;45.55
46574;BME280;32299;53.366;-1.544;2022-09-12T04:02:25;98377.52;;;20.18;45.75
46574;BME280;32299;53.366;-1.544;2022-09-12T04:04:57;98379.13;;;20.66;45.70
46574;BME280;32299;53.366;-1.544;2022-09-12T04:07:24;98379.35;;;20.63;45.73
46574;BME280;32299;53.366;-1.544;2022-09-12T04:09:51;98377.16;;;20.37;45.59
46574;BME280;32299;53.366;-1.544;2022-09-12T04:12:19;98373.87;;;20.36;45.72
46574;BME280;32299;53.366;-1.544;2022-09-12T04:14:46;98369.34;;;20.58;45.87
46574;BME280;32299;53.366;-1.544;2022-09-12T04:17:14;98367.67;;;20.31;45.76
46574;BME280;32299;53.366;-1.544;2022-09-12T04:19:42;98366.09;;;20.34;45.76
46574;BME280;32299;53.366;-1.544;2022-09-12T04:22:09;98361.23;;;20.32;45.73
46574;BME280;32299;53.366;-1.544;2022-09-12T04:24:37;98358.39;;;20.32;45.75
46574;BME280;32299;53.366;-1.544;2022-09-12T04:27:04;98352.38;;;20.32;45.76
46574;BME280;32299;53.366;-1.544;2022-09-12T04:29:31;98351.62;;;20.32;45.83
46574;BME280;32299;53.366;-1.544;2022-09-12T04:31:58;98351.06;;;20.32;45.83
46574;BME280;32299;53.366;-1.544;2022-09-12T04:34:28;98350.39;;;20.59;45.76
46574;BME280;32299;53.366;-1.544;2022-09-12T04:36:56;98350.91;;;20.31;45.69
46574;BME280;32299;53.366;-1.544;2022-09-12T04:39:23;98349.20;;;20.31;45.84
46574;BME280;32299;53.366;-1.544;2022-09-12T04:41:50;98346.47;;;20.31;45.81
46574;BME280;32299;53.366;-1.544;2022-09-12T04:44:18;98349.31;;;20.58;45.91
46574;BME280;32299;53.366;-1.544;2022-09-12T04:46:46;98349.36;;;20.09;45.78
46574;BME280;32299;53.366;-1.544;2022-09-12T04:49:14;98346.81;;;20.54;45.88
46574;BME280;32299;53.366;-1.544;2022-09-12T04:51:43;98348.26;;;20.27;46.02
46574;BME280;32299;53.366;-1.544;2022-09-12T04:54:13;98346.10;;;20.26;46.01
46574;BME280;32299;53.366;-1.544;2022-09-12T04:56:43;98340.65;;;20.53;45.88
46574;BME280;32299;53.366;-1.544;2022-09-12T04:59:12;98339.19;;;20.25;46.01
46574;BME280;32299;53.366;-1.544;2022-09-12T05:01:41;98338.76;;;20.25;46.03
46574;BME280;32299;53.366;-1.544;2022-09-12T05:04:09;98343.19;;;20.25;45.98
46574;BME280;32299;53.366;-1.544;2022-09-12T05:06:37;98346.69;;;20.05;45.93
46574;BME280;32299;53.366;-1.544;2022-09-12T05:09:06;98346.76;;;20.52;46.08
46574;BME280;32299;53.366;-1.544;2022-09-12T05:11:35;98345.24;;;20.25;46.00
46574;BME280;32299;53.366;-1.544;2022-09-12T05:14:03;98347.01;;;20.25;46.10
46574;BME280;32299;53.366;-1.544;2022-09-12T05:16:31;98355.62;;;20.51;46.16
46574;BME280;32299;53.366;-1.544;2022-09-12T05:18:58;98360.41;;;20.25;46.12
46574;BME280;32299;53.366;-1.544;2022-09-12T05:21:26;98366.71;;;20.53;46.13
46574;BME280;32299;53.366;-1.544;2022-09-12T05:23:54;98362.94;;;20.28;46.02
46574;BME280;32299;53.366;-1.544;2022-09-12T05:26:21;98365.22;;;20.30;46.00
46574;BME280;32299;53.366;-1.544;2022-09-12T05:28:50;98367.49;;;20.31;46.03
46574;BME280;32299;53.366;-1.544;2022-09-12T05:31:18;98362.08;;;20.58;45.97
46574;BME280;32299;53.366;-1.544;2022-09-12T05:33:47;98367.10;;;20.32;45.91
46574;BME280;32299;53.366;-1.544;2022-09-12T05:36:17;98363.08;;;20.32;45.93
46574;BME280;32299;53.366;-1.544;2022-09-12T05:38:45;98367.83;;;20.09;45.96
46574;BME280;32299;53.366;-1.544;2022-09-12T05:41:14;98367.09;;;20.33;45.91
46574;BME280;32299;53.366;-1.544;2022-09-12T05:43:42;98362.38;;;20.10;45.93
46574;BME280;32299;53.366;-1.544;2022-09-12T05:46:11;98362.77;;;20.12;45.81
46574;BME280;32299;53.366;-1.544;2022-09-12T05:48:40;98364.65;;;20.63;45.88
46574;BME280;32299;53.366;-1.544;2022-09-12T05:51:10;98373.66;;;20.35;45.78
46574;BME280;32299;53.366;-1.544;2022-09-12T05:53:40;98367.69;;;20.62;45.84
46574;BME280;32299;53.366;-1.544;2022-09-12T05:56:09;98366.65;;;20.12;45.86
46574;BME280;32299;53.366;-1.544;2022-09-12T05:58:38;98368.53;;;20.36;45.86
46574;BME280;32299;53.366;-1.544;2022-09-12T06:01:07;98369.85;;;20.35;46.02
46574;BME280;32299;53.366;-1.544;2022-09-12T06:03:38;98366.58;;;20.15;45.92
46574;BME280;32299;53.366;-1.544;2022-09-12T06:06:06;98369.02;;;20.36;45.94
46574;BME280;32299;53.366;-1.544;2022-09-12T06:08:34;98373.21;;;20.37;46.01
46574;BME280;32299;53.366;-1.544;2022-09-12T06:11:03;98373.62;;;20.39;45.92
46574;BME280;32299;53.366;-1.544;2022-09-12T06:13:33;98375.38;;;20.39;45.74
46574;BME280;32299;53.366;-1.544;2022-09-12T06:16:04;98371.12;;;20.66;45.99
46574;BME280;32299;53.366;-1.544;2022-09-12T06:18:32;98372.32;;;20.40;46.10
46574;BME280;32299;53.366;-1.544;2022-09-12T06:21:02;98361.46;;;20.19;45.96
46574;BME280;32299;53.366;-1.544;2022-09-12T06:23:29;98361.44;;;20.43;45.97
46574;BME280;32299;53.366;-1.544;2022-09-12T06:25:57;98360.14;;;20.44;46.10
46574;BME280;32299;53.366;-1.544;2022-09-12T06:28:24;98362.04;;;20.24;46.01
46574;BME280;32299;53.366;-1.544;2022-09-12T06:30:52;98367.04;;;20.73;46.16
46574;BME280;32299;53.366;-1.544;2022-09-12T06:33:19;98363.75;;;20.25;46.14
46574;BME280;32299;53.366;-1.544;2022-09-12T06:35:47;98360.43;;;20.50;46.02
46574;BME280;32299;53.366;-1.544;2022-09-12T06:38:14;98367.04;;;20.53;45.88
46574;BME280;32299;53.366;-1.544;2022-09-12T06:40:42;98370.35;;;20.55;45.81
46574;BME280;32299;53.366;-1.544;2022-09-12T06:43:10;98370.46;;;20.35;45.81
46574;BME280;32299;53.366;-1.544;2022-09-12T06:45:38;98371.83;;;20.59;45.81
46574;BME280;32299;53.366;-1.544;2022-09-12T06:48:05;98379.35;;;20.39;45.83
46574;BME280;32299;53.366;-1.544;2022-09-12T06:50:32;98380.71;;;20.64;45.78
46574;BME280;32299;53.366;-1.544;2022-09-12T06:53:00;98381.44;;;20.43;45.75
46574;BME280;32299;53.366;-1.544;2022-09-12T06:55:27;98383.45;;;20.67;45.78
46574;BME280;32299;53.366;-1.544;2022-09-12T06:57:55;98378.37;;;20.66;45.86
46574;BME280;32299;53.366;-1.544;2022-09-12T07:00:21;98380.47;;;20.46;45.81
46574;BME280;32299;53.366;-1.544;2022-09-12T07:02:53;98379.56;;;20.68;45.91
46574;BME280;32299;53.366;-1.544;2022-09-12T07:05:20;98380.08;;;20.47;45.78
46574;BME280;32299;53.366;-1.544;2022-09-12T07:07:47;98383.34;;;20.70;45.90
46574;BME280;32299;53.366;-1.544;2022-09-12T07:10:15;98377.47;;;20.49;45.79
46574;BME280;32299;53.366;-1.544;2022-09-12T07:12:42;98379.95;;;20.50;45.90
46574;BME280;32299;53.366;-1.544;2022-09-12T07:15:10;98376.17;;;20.51;45.83
46574;BME280;32299;53.366;-1.544;2022-09-12T07:17:37;98376.78;;;20.75;45.81
46574;BME280;32299;53.366;-1.544;2022-09-12T07:20:06;98377.26;;;20.55;45.78
46574;BME280;32299;53.366;-1.544;2022-09-12T07:22:33;98377.43;;;20.56;45.76
46574;BME280;32299;53.366;-1.544;2022-09-12T07:25:00;98372.70;;;20.78;45.89
46574;BME280;32299;53.366;-1.544;2022-09-12T07:27:27;98377.54;;;20.58;45.97
46574;BME280;32299;53.366;-1.544;2022-09-12T07:29:54;98370.40;;;20.58;46.02
46574;BME280;32299;53.366;-1.544;2022-09-12T07:32:21;98371.60;;;20.37;46.03
46574;BME280;32299;53.366;-1.544;2022-09-12T07:34:49;98372.50;;;20.84;45.83
46574;BME280;32299;53.366;-1.544;2022-09-12T07:37:16;98377.91;;;20.63;45.91
46574;BME280;32299;53.366;-1.544;2022-09-12T07:39:43;98380.80;;;20.66;45.79
46574;BME280;32299;53.366;-1.544;2022-09-12T07:42:10;98374.64;;;20.69;45.74
46574;BME280;32299;53.366;-1.544;2022-09-12T07:44:37;98371.91;;;20.71;45.64
46574;BME280;32299;53.366;-1.544;2022-09-12T07:47:05;98365.02;;;20.72;45.64
46574;BME280;32299;53.366;-1.544;2022-09-12T07:49:32;98367.57;;;20.74;45.73
46574;BME280;32299;53.366;-1.544;2022-09-12T07:52:00;98369.72;;;20.75;45.80
46574;BME280;32299;53.366;-1.544;2022-09-12T07:54:27;98375.19;;;20.76;46.02
46574;BME280;32299;53.366;-1.544;2022-09-12T07:56:54;98374.95;;;20.76;45.96
46574;BME280;32299;53.366;-1.544;2022-09-12T07:59:22;98378.59;;;20.79;46.04
46574;BME280;32299;53.366;-1.544;2022-09-12T08:01:49;98374.71;;;20.73;46.59
46574;BME280;32299;53.366;-1.544;2022-09-12T08:04:16;98367.96;;;20.75;46.55
46574;BME280;32299;53.366;-1.544;2022-09-12T08:06:43;98365.04;;;20.79;46.59
46574;BME280;32299;53.366;-1.544;2022-09-12T08:09:10;98361.43;;;20.81;46.70
46574;BME280;32299;53.366;-1.544;2022-09-12T08:11:37;98356.38;;;21.07;46.69
46574;BME280;32299;53.366;-1.544;2022-09-12T08:14:04;98350.20;;;20.86;46.87
46574;BME280;32299;53.366;-1.544;2022-09-12T08:16:32;98349.56;;;20.85;47.14
46574;BME280;32299;53.366;-1.544;2022-09-12T08:19:01;98352.56;;;21.12;47.00
46574;BME280;32299;53.366;-1.544;2022-09-12T08:21:30;98353.47;;;20.71;47.06
46574;BME280;32299;53.366;-1.544;2022-09-12T08:23:59;98357.43;;;20.97;47.15
46574;BME280;32299;53.366;-1.544;2022-09-12T08:26:26;98352.72;;;21.01;47.10
46574;BME280;32299;53.366;-1.544;2022-09-12T08:28:54;98353.59;;;20.83;47.29
46574;BME280;32299;53.366;-1.544;2022-09-12T08:31:23;98356.33;;;21.09;47.47
46574;BME280;32299;53.366;-1.544;2022-09-12T08:33:50;98352.24;;;21.16;47.46
46574;BME280;32299;53.366;-1.544;2022-09-12T08:36:19;98352.24;;;21.18;47.60
46574;BME280;32299;53.366;-1.544;2022-09-12T08:38:48;98350.15;;;21.27;47.70
46574;BME280;32299;53.366;-1.544;2022-09-12T08:41:22;98345.78;;;20.85;47.83
46574;BME280;32299;53.366;-1.544;2022-09-12T08:44:05;98352.59;;;21.42;47.92
46574;BME280;32299;53.366;-1.544;2022-09-12T08:46:40;98354.01;;;21.26;47.73
46574;BME280;32299;53.366;-1.544;2022-09-12T08:49:16;98351.93;;;21.33;47.63
46574;BME280;32299;53.366;-1.544;2022-09-12T08:51:48;98353.11;;;21.41;47.80
46574;BME280;32299;53.366;-1.544;2022-09-12T08:54:20;98356.68;;;21.51;47.75
46574;BME280;32299;53.366;-1.544;2022-09-12T08:56:50;98356.53;;;21.77;47.93
46574;BME280;32299;53.366;-1.544;2022-09-12T08:59:22;98350.52;;;21.37;47.75
46574;BME280;32299;53.366;-1.544;2022-09-12T09:01:50;98347.65;;;21.68;47.70
46574;BME280;32299;53.366;-1.544;2022-09-12T09:04:31;98356.92;;;21.72;47.74
46574;BME280;32299;53.366;-1.544;2022-09-12T09:07:14;98355.75;;;21.49;47.83
46574;BME280;32299;53.366;-1.544;2022-09-12T09:09:56;98352.46;;;21.82;47.84
46574;BME280;32299;53.366;-1.544;2022-09-12T09:12:34;98356.81;;;21.61;47.92
46574;BME280;32299;53.366;-1.544;2022-09-12T09:15:16;98360.83;;;21.92;47.90
46574;BME280;32299;53.366;-1.544;2022-09-12T09:17:52;98357.62;;;21.74;47.91
46574;BME280;32299;53.366;-1.544;2022-09-12T09:20:27;98359.74;;;21.83;48.19
46574;BME280;32299;53.366;-1.544;2022-09-12T09:22:59;98364.38;;;21.90;48.19
46574;BME280;32299;53.366;-1.544;2022-09-12T09:25:41;98362.88;;;21.96;48.04
46574;BME280;32299;53.366;-1.544;2022-09-12T09:28:14;98365.38;;;22.01;47.99
46574;BME280;32299;53.366;-1.544;2022-09-12T09:30:42;98359.49;;;22.10;47.66
46574;BME280;32299;53.366;-1.544;2022-09-12T09:33:17;98361.86;;;22.18;47.57
46574;BME280;32299;53.366;-1.544;2022-09-12T09:35:49;98360.08;;;22.52;47.68
46574;BME280;32299;53.366;-1.544;2022-09-12T09:38:23;98368.86;;;22.34;47.67
46574;BME280;32299;53.366;-1.544;2022-09-12T09:41:02;98366.90;;;22.42;47.70
46574;BME280;32299;53.366;-1.544;2022-09-12T09:43:33;98371.32;;;22.46;47.65
46574;BME280;32299;53.366;-1.544;2022-09-12T09:46:06;98374.32;;;22.47;47.58
46574;BME280;32299;53.366;-1.544;2022-09-12T09:48:40;98376.46;;;22.33;47.46
46574;BME280;32299;53.366;-1.544;2022-09-12T09:51:08;98376.45;;;22.60;47.54
46574;BME280;32299;53.366;-1.544;2022-09-12T09:53:40;98368.59;;;22.71;47.26
46574;BME280;32299;53.366;-1.544;2022-09-12T09:56:14;98366.18;;;22.56;47.45
46574;BME280;32299;53.366;-1.544;2022-09-12T09:58:46;98370.20;;;22.61;47.42
46574;BME280;32299;53.366;-1.544;2022-09-12T10:01:14;98369.81;;;22.70;47.62
46574;BME280;32299;53.366;-1.544;2022-09-12T10:03:48;98373.21;;;22.76;48.02
46574;BME280;32299;53.366;-1.544;2022-09-12T10:06:28;98381.66;;;23.13;47.88
46574;BME280;32299;53.366;-1.544;2022-09-12T10:09:30;98369.60;;;23.73;47.62
46574;BME280;32299;53.366;-1.544;2022-09-12T10:11:59;98369.29;;;23.09;47.46
46574;BME280;32299;53.366;-1.544;2022-09-12T10:14:29;98372.11;;;23.18;47.36
46574;BME280;32299;53.366;-1.544;2022-09-12T10:16:57;98372.27;;;23.50;47.17
46574;BME280;32299;53.366;-1.544;2022-09-12T10:19:33;98379.25;;;23.13;47.01
46574;BME280;32299;53.366;-1.544;2022-09-12T10:22:01;98383.34;;;23.15;46.94
46574;BME280;32299;53.366;-1.544;2022-09-12T10:24:33;98387.54;;;23.01;46.74
46574;BME280;32299;53.366;-1.544;2022-09-12T10:27:08;98387.87;;;23.28;46.54
46574;BME280;32299;53.366;-1.544;2022-09-12T10:29:41;98390.00;;;23.35;46.48
46574;BME280;32299;53.366;-1.544;2022-09-12T10:32:11;98389.90;;;23.40;46.29
46574;BME280;32299;53.366;-1.544;2022-09-12T10:34:43;98390.17;;;23.44;46.19
46574;BME280;32299;53.366;-1.544;2022-09-12T10:37:18;98389.04;;;23.27;46.07
46574;BME280;32299;53.366;-1.544;2022-09-12T10:39:51;98390.41;;;23.52;46.04
46574;BME280;32299;53.366;-1.544;2022-09-12T10:42:43;98394.67;;;23.56;45.91
46574;BME280;32299;53.366;-1.544;2022-09-12T10:45:23;98389.41;;;23.83;45.91
46574;BME280;32299;53.366;-1.544;2022-09-12T10:47:52;98385.12;;;23.58;45.92
46574;BME280;32299;53.366;-1.544;2022-09-12T10:50:23;98388.04;;;23.61;45.79
46574;BME280;32299;53.366;-1.544;2022-09-12T10:52:51;98391.40;;;23.41;45.50
46574;BME280;32299;53.366;-1.544;2022-09-12T10:55:23;98384.28;;;23.60;45.45
46574;BME280;32299;53.366;-1.544;2022-09-12T10:58:00;98388.15;;;23.59;45.39
46574;BME280;32299;53.366;-1.544;2022-09-12T11:00:32;98390.74;;;23.57;45.36
46574;BME280;32299;53.366;-1.544;2022-09-12T11:03:08;98385.40;;;23.57;45.29
46574;BME280;32299;53.366;-1.544;2022-09-12T11:05:50;98385.97;;;23.54;45.32
46574;BME280;32299;53.366;-1.544;2022-09-12T11:08:35;98387.66;;;23.53;45.47
46574;BME280;32299;53.366;-1.544;2022-09-12T11:11:10;98384.09;;;23.52;45.68
46574;BME280;32299;53.366;-1.544;2022-09-12T11:13:52;98379.99;;;23.53;45.79
46574;BME280;32299;53.366;-1.544;2022-09-12T11:16:29;98381.77;;;23.57;46.00
46574;BME280;32299;53.366;-1.544;2022-09-12T11:19:11;98381.87;;;23.61;46.11
46574;BME280;32299;53.366;-1.544;2022-09-12T11:21:48;98375.12;;;23.62;46.20
46574;BME280;32299;53.366;-1.544;2022-09-12T11:24:28;98374.12;;;23.65;46.20
46574;BME280;32299;53.366;-1.544;2022-09-12T11:27:09;98371.35;;;23.70;46.15
46574;BME280;32299;53.366;-1.544;2022-09-12T11:29:47;98370.27;;;23.49;45.94
46574;BME280;32299;53.366;-1.544;2022-09-12T11:32:31;98367.03;;;23.77;45.86
46574;BME280;32299;53.366;-1.544;2022-09-12T11:35:12;98361.95;;;23.78;46.05
46574;BME280;32299;53.366;-1.544;2022-09-12T11:37:55;98367.14;;;23.83;45.97
46574;BME280;32299;53.366;-1.544;2022-09-12T11:40:30;98371.11;;;23.63;45.86
46574;BME280;32299;53.366;-1.544;2022-09-12T11:43:04;98376.25;;;23.92;46.28
46574;BME280;32299;53.366;-1.544;2022-09-12T11:45:38;98381.46;;;24.00;46.25
46574;BME280;32299;53.366;-1.544;2022-09-12T11:48:11;98380.01;;;23.86;46.51
46574;BME280;32299;53.366;-1.544;2022-09-12T11:50:40;98378.01;;;24.18;46.30
46574;BME280;32299;53.366;-1.544;2022-09-12T11:53:13;98384.05;;;23.82;45.96
46574;BME280;32299;53.366;-1.544;2022-09-12T11:55:50;98387.90;;;24.09;45.83
46574;BME280;32299;53.366;-1.544;2022-09-12T11:58:23;98390.76;;;24.38;45.42
46574;BME280;32299;53.366;-1.544;2022-09-12T12:00:54;98396.16;;;24.40;45.74
46574;BME280;32299;53.366;-1.544;2022-09-12T12:03:29;98397.39;;;24.02;45.62
46574;BME280;32299;53.366;-1.544;2022-09-12T12:06:02;98395.61;;;24.51;45.42
46574;BME280;32299;53.366;-1.544;2022-09-12T12:08:31;98394.62;;;24.09;45.22
46574;BME280;32299;53.366;-1.544;2022-09-12T12:11:04;98393.32;;;24.11;45.01
46574;BME280;32299;53.366;-1.544;2022-09-12T12:13:33;98391.55;;;24.06;44.99
46574;BME280;32299;53.366;-1.544;2022-09-12T12:16:04;98389.33;;;24.11;44.55
46574;BME280;32299;53.366;-1.544;2022-09-12T12:18:35;98391.44;;;24.32;44.67
46574;BME280;32299;53.366;-1.544;2022-09-12T12:21:37;98393.83;;;24.55;44.72
46574;BME280;32299;53.366;-1.544;2022-09-12T12:24:20;98393.88;;;24.05;44.85
46574;BME280;32299;53.366;-1.544;2022-09-12T12:26:57;98394.74;;;24.07;44.85
46574;BME280;32299;53.366;-1.544;2022-09-12T12:29:42;98392.05;;;24.32;44.77
46574;BME280;32299;53.366;-1.544;2022-09-12T12:32:28;98393.27;;;24.52;44.86
46574;BME280;32299;53.366;-1.544;2022-09-12T12:36:03;98401.06;;;24.95;44.79
46574;BME280;32299;53.366;-1.544;2022-09-12T12:38:32;98411.17;;;24.28;44.89
46574;BME280;32299;53.366;-1.544;2022-09-12T12:41:42;98413.01;;;24.16;44.88
46574;BME280;32299;53.366;-1.544;2022-09-12T12:44:48;98408.60;;;23.88;45.24
46574;BME280;32299;53.366;-1.544;2022-09-12T12:47:22;98407.38;;;24.09;45.47
46574;BME280;32299;53.366;-1.544;2022-09-12T12:49:55;98408.51;;;23.76;45.57
46574;BME280;32299;53.366;-1.544;2022-09-12T12:52:24;98404.32;;;23.70;45.69
46574;BME280;32299;53.366;-1.544;2022-09-12T12:54:56;98403.37;;;23.84;45.87
46574;BME280;32299;53.366;-1.544;2022-09-12T12:57:30;98392.23;;;23.77;45.98
46574;BME280;32299;53.366;-1.544;2022-09-12T13:00:04;98395.31;;;23.72;46.03
46574;BME280;32299;53.366;-1.544;2022-09-12T13:02:33;98392.19;;;23.47;45.98
46574;BME280;32299;53.366;-1.544;2022-09-12T13:05:04;98393.85;;;23.64;45.99
46574;BME280;32299;53.366;-1.544;2022-09-12T13:07:34;98389.61;;;23.58;45.93
46574;BME280;32299;53.366;-1.544;2022-09-12T13:10:05;98385.46;;;23.53;46.10
46574;BME280;32299;53.366;-1.544;2022-09-12T13:12:36;98382.35;;;23.52;46.12
46574;BME280;32299;53.366;-1.544;2022-09-12T13:15:46;98379.17;;;23.77;46.42